sensor_id;sensor_type;location;lat;lon;timestamp;pressure;altitude;pressure_sealevel;temperature;humidity
53270;BME280;39159;45.634;9.420;2022-10-17T00:01:47;99995.28;;;14.83;100.00
53270;BME280;39159;45.634;9.420;2022-10-17T00:04:13;100007.78;;;14.89;100.00
53270;BME280;39159;45.634;9.420;2022-10-17T00:06:38;100008.59;;;14.90;100.00
53270;BME280;39159;45.634;9.420;2022-10-17T00:09:04;100006.09;;;14.80;100.00
53270;BME280;39159;45.634;9.420;2022-10-17T00:11:29;100003.47;;;14.75;100.00
53270;BME280;39159;45.634;9.420;2022-10-17T00:13:55;100003.25;;;14.71;100.00
53270;BME280;39159;45.634;9.420;2022-10-17T00:16:32;100007.53;;;14.77;100.00
53270;BME280;39159;45.634;9.420;2022-10-17T00:19:00;100002.03;;;14.77;100.00
53270;BME280;39159;45.634;9.420;2022-10-17T00:21:26;99992.34;;;14.80;100.00
53270;BME280;39159;45.634;9.420;2022-10-17T00:23:52;100001.09;;;14.82;100.00
53270;BME280;39159;45.634;9.420;2022-10-17T00:26:18;100000.97;;;14.87;100.00
53270;BME280;39159;45.634;9.420;2022-10-17T00:28:48;100004.03;;;14.85;100.00
53270;BME280;39159;45.634;9.420;2022-10-17T00:31:16;100008.91;;;14.88;100.00
53270;BME280;39159;45.634;9.420;2022-10-17T00:33:42;100018.47;;;14.91;100.00
53270;BME280;39159;45.634;9.420;2022-10-17T00:36:15;100012.16;;;14.90;100.00
53270;BME280;39159;45.634;9.420;2022-10-17T00:38:42;100007.78;;;14.89;100.00
53270;BME280;39159;45.634;9.420;2022-10-17T00:41:10;100006.97;;;14.89;100.00
53270;BME280;39159;45.634;9.420;2022-10-17T00:46:14;100017.06;;;14.80;100.00
53270;BME280;39159;45.634;9.420;2022-10-17T00:48:39;100010.56;;;14.76;100.00
53270;BME280;39159;45.634;9.420;2022-10-17T00:51:05;100019.44;;;14.73;100.00
53270;BME280;39159;45.634;9.420;2022-10-17T00:53:30;100016.50;;;14.69;100.00
53270;BME280;39159;45.634;9.420;2022-10-17T00:55:57;100028.13;;;14.66;100.00
53270;BME280;39159;45.634;9.420;2022-10-17T00:58:22;100026.81;;;14.63;100.00
53270;BME280;39159;45.634;9.420;2022-10-17T01:00:48;100028.22;;;14.61;100.00
53270;BME280;39159;45.634;9.420;2022-10-17T01:03:13;100025.56;;;14.56;100.00
53270;BME280;39159;45.634;9.420;2022-10-17T01:05:40;100028.41;;;14.50;100.00
53270;BME280;39159;45.634;9.420;2022-10-17T01:08:06;100030.16;;;14.46;100.00
53270;BME280;39159;45.634;9.420;2022-10-17T01:10:43;100032.72;;;14.43;100.00
53270;BME280;39159;45.634;9.420;2022-10-17T01:13:13;100031.19;;;14.37;100.00
53270;BME280;39159;45.634;9.420;2022-10-17T01:15:59;100033.94;;;14.37;100.00
53270;BME280;39159;45.634;9.420;2022-10-17T01:18:47;100023.53;;;14.34;100.00
53270;BME280;39159;45.634;9.420;2022-10-17T01:21:27;100030.97;;;14.33;100.00
53270;BME280;39159;45.634;9.420;2022-10-17T01:27:06;100041.16;;;14.33;100.00
53270;BME280;39159;45.634;9.420;2022-10-17T01:32:48;100029.03;;;14.34;100.00
53270;BME280;39159;45.634;9.420;2022-10-17T01:35:22;100033.41;;;14.35;100.00
53270;BME280;39159;45.634;9.420;2022-10-17T01:38:00;100031.78;;;14.34;100.00
53270;BME280;39159;45.634;9.420;2022-10-17T01:40:35;100034.84;;;14.32;100.00
53270;BME280;39159;45.634;9.420;2022-10-17T01:45:52;100022.44;;;14.35;100.00
53270;BME280;39159;45.634;9.420;2022-10-17T01:48:24;100022.44;;;14.35;100.00
53270;BME280;39159;45.634;9.420;2022-10-17T01:50:54;100020.78;;;14.34;100.00
53270;BME280;39159;45.634;9.420;2022-10-17T01:53:30;100015.00;;;14.35;100.00
53270;BME280;39159;45.634;9.420;2022-10-17T01:55:59;100014.72;;;14.37;100.00
53270;BME280;39159;45.634;9.420;2022-10-17T01:58:33;100020.78;;;14.34;100.00
53270;BME280;39159;45.634;9.420;2022-10-17T02:01:04;100012.88;;;14.32;100.00
53270;BME280;39159;45.634;9.420;2022-10-17T02:03:31;100017.25;;;14.33;100.00
53270;BME280;39159;45.634;9.420;2022-10-17T02:05:59;100018.03;;;14.34;100.00
53270;BME280;39159;45.634;9.420;2022-10-17T02:08:39;100010.44;;;14.30;100.00
53270;BME280;39159;45.634;9.420;2022-10-17T02:11:23;100000.59;;;14.29;100.00
53270;BME280;39159;45.634;9.420;2022-10-17T02:17:05;100001.06;;;14.31;100.00
53270;BME280;39159;45.634;9.420;2022-10-17T02:19:54;100010.44;;;14.30;100.00
53270;BME280;39159;45.634;9.420;2022-10-17T02:25:30;100005.44;;;14.33;100.00
53270;BME280;39159;45.634;9.420;2022-10-17T02:28:07;100000.75;;;14.33;100.00
53270;BME280;39159;45.634;9.420;2022-10-17T02:30:41;99998.03;;;14.33;100.00
53270;BME280;39159;45.634;9.420;2022-10-17T02:33:24;100005.97;;;14.35;100.00
53270;BME280;39159;45.634;9.420;2022-10-17T02:35:57;100008.72;;;14.35;100.00
53270;BME280;39159;45.634;9.420;2022-10-17T02:38:24;100000.47;;;14.35;100.00
53270;BME280;39159;45.634;9.420;2022-10-17T02:40:52;99995.78;;;14.35;100.00
53270;BME280;39159;45.634;9.420;2022-10-17T02:43:18;99996.09;;;14.34;100.00
53270;BME280;39159;45.634;9.420;2022-10-17T02:45:45;99995.56;;;14.31;100.00
53270;BME280;39159;45.634;9.420;2022-10-17T02:50:51;99999.75;;;14.29;100.00
53270;BME280;39159;45.634;9.420;2022-10-17T02:53:29;100011.06;;;14.27;100.00
53270;BME280;39159;45.634;9.420;2022-10-17T02:56:01;100014.91;;;14.26;100.00
53270;BME280;39159;45.634;9.420;2022-10-17T02:58:31;100015.53;;;14.23;100.00
53270;BME280;39159;45.634;9.420;2022-10-17T03:00:59;100017.25;;;14.19;100.00
53270;BME280;39159;45.634;9.420;2022-10-17T03:03:28;100018.38;;;14.18;100.00
53270;BME280;39159;45.634;9.420;2022-10-17T03:05:53;100024.19;;;14.17;100.00
53270;BME280;39159;45.634;9.420;2022-10-17T03:08:19;100019.59;;;14.12;100.00
53270;BME280;39159;45.634;9.420;2022-10-17T03:10:45;100022.66;;;14.10;100.00
53270;BME280;39159;45.634;9.420;2022-10-17T03:13:10;100026.81;;;14.08;100.00
53270;BME280;39159;45.634;9.420;2022-10-17T03:15:36;100032.31;;;14.08;100.00
53270;BME280;39159;45.634;9.420;2022-10-17T03:18:02;100027.91;;;14.07;100.00
53270;BME280;39159;45.634;9.420;2022-10-17T03:20:27;100031.81;;;14.06;100.00
53270;BME280;39159;45.634;9.420;2022-10-17T03:22:53;100037.06;;;14.02;100.00
53270;BME280;39159;45.634;9.420;2022-10-17T03:25:18;100028.84;;;14.02;100.00
53270;BME280;39159;45.634;9.420;2022-10-17T03:27:44;100034.66;;;14.01;100.00
53270;BME280;39159;45.634;9.420;2022-10-17T03:30:09;100043.19;;;13.99;100.00
53270;BME280;39159;45.634;9.420;2022-10-17T03:32:35;100038.00;;;13.98;100.00
53270;BME280;39159;45.634;9.420;2022-10-17T03:35:01;100048.16;;;13.97;100.00
53270;BME280;39159;45.634;9.420;2022-10-17T03:37:27;100041.06;;;13.96;100.00
53270;BME280;39159;45.634;9.420;2022-10-17T03:39:52;100058.00;;;13.98;100.00
53270;BME280;39159;45.634;9.420;2022-10-17T03:42:18;100049.28;;;13.96;100.00
53270;BME280;39159;45.634;9.420;2022-10-17T03:44:43;100059.94;;;13.98;100.00
53270;BME280;39159;45.634;9.420;2022-10-17T03:47:08;100061.06;;;13.97;100.00
53270;BME280;39159;45.634;9.420;2022-10-17T03:49:34;100059.13;;;13.97;100.00
53270;BME280;39159;45.634;9.420;2022-10-17T03:51:59;100057.19;;;13.98;100.00
53270;BME280;39159;45.634;9.420;2022-10-17T03:54:25;100066.25;;;13.98;100.00
53270;BME280;39159;45.634;9.420;2022-10-17T03:56:50;100063.81;;;13.97;100.00
53270;BME280;39159;45.634;9.420;2022-10-17T03:59:16;100072.06;;;13.97;100.00
53270;BME280;39159;45.634;9.420;2022-10-17T04:01:42;100067.66;;;13.96;100.00
53270;BME280;39159;45.634;9.420;2022-10-17T04:04:08;100065.25;;;13.94;100.00
53270;BME280;39159;45.634;9.420;2022-10-17T04:06:34;100069.69;;;13.90;100.00
53270;BME280;39159;45.634;9.420;2022-10-17T04:09:00;100064.72;;;13.92;100.00
53270;BME280;39159;45.634;9.420;2022-10-17T04:11:25;100062.28;;;13.91;100.00
53270;BME280;39159;45.634;9.420;2022-10-17T04:13:55;100068.28;;;13.93;100.00
53270;BME280;39159;45.634;9.420;2022-10-17T04:16:21;100069.09;;;13.93;100.00
53270;BME280;39159;45.634;9.420;2022-10-17T04:18:51;100074.56;;;13.93;100.00
53270;BME280;39159;45.634;9.420;2022-10-17T04:21:18;100075.31;;;13.99;100.00
53270;BME280;39159;45.634;9.420;2022-10-17T04:23:43;100084.25;;;14.04;100.00
53270;BME280;39159;45.634;9.420;2022-10-17T04:26:09;100085.50;;;14.12;100.00
53270;BME280;39159;45.634;9.420;2022-10-17T04:28:35;100085.78;;;14.10;100.00
53270;BME280;39159;45.634;9.420;2022-10-17T04:31:06;100082.13;;;14.15;100.00
53270;BME280;39159;45.634;9.420;2022-10-17T04:33:34;100080.00;;;14.12;100.00
53270;BME280;39159;45.634;9.420;2022-10-17T04:36:00;100089.25;;;14.16;100.00
53270;BME280;39159;45.634;9.420;2022-10-17T04:38:28;100091.38;;;14.19;100.00
53270;BME280;39159;45.634;9.420;2022-10-17T04:40:55;100083.66;;;14.21;100.00
53270;BME280;39159;45.634;9.420;2022-10-17T04:43:21;100084.47;;;14.22;100.00
53270;BME280;39159;45.634;9.420;2022-10-17T04:45:46;100091.09;;;14.21;100.00
53270;BME280;39159;45.634;9.420;2022-10-17T04:48:12;100099.63;;;14.19;100.00
53270;BME280;39159;45.634;9.420;2022-10-17T04:50:37;100097.78;;;14.15;100.00
53270;BME280;39159;45.634;9.420;2022-10-17T04:53:02;100101.22;;;14.20;100.00
53270;BME280;39159;45.634;9.420;2022-10-17T04:55:28;100102.06;;;14.21;100.00
53270;BME280;39159;45.634;9.420;2022-10-17T04:57:53;100100.13;;;14.21;100.00
53270;BME280;39159;45.634;9.420;2022-10-17T05:00:19;100109.47;;;14.20;100.00
53270;BME280;39159;45.634;9.420;2022-10-17T05:02:44;100099.09;;;14.17;100.00
53270;BME280;39159;45.634;9.420;2022-10-17T05:05:10;100099.91;;;14.18;100.00
53270;BME280;39159;45.634;9.420;2022-10-17T05:07:39;100107.63;;;14.16;100.00
53270;BME280;39159;45.634;9.420;2022-10-17T05:10:05;100105.22;;;14.14;100.00
53270;BME280;39159;45.634;9.420;2022-10-17T05:12:30;100109.28;;;14.17;100.00
53270;BME280;39159;45.634;9.420;2022-10-17T05:14:56;100105.50;;;14.13;100.00
53270;BME280;39159;45.634;9.420;2022-10-17T05:17:21;100117.53;;;14.17;100.00
53270;BME280;39159;45.634;9.420;2022-10-17T05:19:46;100114.44;;;14.18;100.00
53270;BME280;39159;45.634;9.420;2022-10-17T05:22:12;100109.28;;;14.17;100.00
53270;BME280;39159;45.634;9.420;2022-10-17T05:24:37;100113.47;;;14.14;100.00
53270;BME280;39159;45.634;9.420;2022-10-17T05:27:03;100110.19;;;14.12;100.00
53270;BME280;39159;45.634;9.420;2022-10-17T05:29:28;100115.75;;;14.07;100.00
53270;BME280;39159;45.634;9.420;2022-10-17T05:31:54;100118.50;;;14.07;100.00
53270;BME280;39159;45.634;9.420;2022-10-17T05:34:19;100118.22;;;14.08;100.00
53270;BME280;39159;45.634;9.420;2022-10-17T05:36:45;100125.94;;;14.06;100.00
53270;BME280;39159;45.634;9.420;2022-10-17T05:39:11;100127.25;;;14.09;100.00
53270;BME280;39159;45.634;9.420;2022-10-17T05:41:39;100122.66;;;14.04;100.00
53270;BME280;39159;45.634;9.420;2022-10-17T05:44:04;100124.59;;;14.04;100.00
53270;BME280;39159;45.634;9.420;2022-10-17T05:46:30;100126.31;;;14.00;100.00
53270;BME280;39159;45.634;9.420;2022-10-17T05:48:55;100126.94;;;13.97;100.00
53270;BME280;39159;45.634;9.420;2022-10-17T05:51:20;100139.34;;;13.94;100.00
53270;BME280;39159;45.634;9.420;2022-10-17T05:53:46;100133.78;;;14.13;100.00
53270;BME280;39159;45.634;9.420;2022-10-17T05:56:12;100139.25;;;14.13;100.00
53270;BME280;39159;45.634;9.420;2022-10-17T05:58:40;100144.47;;;14.15;100.00
53270;BME280;39159;45.634;9.420;2022-10-17T06:01:07;100145.88;;;14.12;100.00
53270;BME280;39159;45.634;9.420;2022-10-17T06:03:33;100150.06;;;14.09;100.00
53270;BME280;39159;45.634;9.420;2022-10-17T06:06:06;100152.06;;;14.04;100.00
53270;BME280;39159;45.634;9.420;2022-10-17T06:08:32;100150.13;;;14.04;100.00
53270;BME280;39159;45.634;9.420;2022-10-17T06:10:59;100146.56;;;14.04;100.00
53270;BME280;39159;45.634;9.420;2022-10-17T06:13:24;100152.56;;;14.06;100.00
53270;BME280;39159;45.634;9.420;2022-10-17T06:15:50;100152.78;;;14.09;100.00
53270;BME280;39159;45.634;9.420;2022-10-17T06:18:15;100150.34;;;14.08;100.00
53270;BME280;39159;45.634;9.420;2022-10-17T06:20:41;100160.81;;;14.06;100.00
53270;BME280;39159;45.634;9.420;2022-10-17T06:23:06;100158.78;;;14.12;100.00
53270;BME280;39159;45.634;9.420;2022-10-17T06:25:32;100169.47;;;14.13;100.00
53270;BME280;39159;45.634;9.420;2022-10-17T06:27:58;100168.25;;;14.19;100.00
53270;BME280;39159;45.634;9.420;2022-10-17T06:30:24;100172.31;;;14.22;100.00
53270;BME280;39159;45.634;9.420;2022-10-17T06:32:51;100174.97;;;14.27;100.00
53270;BME280;39159;45.634;9.420;2022-10-17T06:35:17;100180.97;;;14.29;100.00
53270;BME280;39159;45.634;9.420;2022-10-17T06:37:43;100183.13;;;14.32;100.00
53270;BME280;39159;45.634;9.420;2022-10-17T06:40:08;100174.56;;;14.34;100.00
53270;BME280;39159;45.634;9.420;2022-10-17T06:42:36;100184.66;;;14.38;100.00
53270;BME280;39159;45.634;9.420;2022-10-17T06:45:03;100180.81;;;14.39;100.00
53270;BME280;39159;45.634;9.420;2022-10-17T06:47:28;100189.25;;;14.43;100.00
53270;BME280;39159;45.634;9.420;2022-10-17T06:49:54;100191.09;;;14.47;100.00
53270;BME280;39159;45.634;9.420;2022-10-17T06:52:19;100198.72;;;14.50;100.00
53270;BME280;39159;45.634;9.420;2022-10-17T06:54:44;100201.59;;;14.59;100.00
53270;BME280;39159;45.634;9.420;2022-10-17T06:57:10;100206.41;;;14.67;100.00
53270;BME280;39159;45.634;9.420;2022-10-17T06:59:35;100201.31;;;14.75;100.00
53270;BME280;39159;45.634;9.420;2022-10-17T07:02:01;100204.97;;;14.84;100.00
53270;BME280;39159;45.634;9.420;2022-10-17T07:04:27;100204.16;;;14.97;100.00
53270;BME280;39159;45.634;9.420;2022-10-17T07:06:53;100203.03;;;15.12;100.00
53270;BME280;39159;45.634;9.420;2022-10-17T07:09:18;100214.19;;;15.16;100.00
53270;BME280;39159;45.634;9.420;2022-10-17T07:11:44;100212.34;;;15.25;100.00
53270;BME280;39159;45.634;9.420;2022-10-17T07:14:09;100214.69;;;15.31;100.00
53270;BME280;39159;45.634;9.420;2022-10-17T07:16:35;100222.94;;;15.45;100.00
53270;BME280;39159;45.634;9.420;2022-10-17T07:19:01;100215.22;;;15.56;100.00
53270;BME280;39159;45.634;9.420;2022-10-17T07:21:26;100219.41;;;15.67;100.00
53270;BME280;39159;45.634;9.420;2022-10-17T07:23:52;100220.31;;;15.77;100.00
53270;BME280;39159;45.634;9.420;2022-10-17T07:26:18;100220.13;;;15.95;100.00
53270;BME280;39159;45.634;9.420;2022-10-17T07:28:45;100230.13;;;16.14;100.00
53270;BME280;39159;45.634;9.420;2022-10-17T07:31:14;100240.91;;;16.24;100.00
53270;BME280;39159;45.634;9.420;2022-10-17T07:33:41;100238.09;;;16.47;100.00
53270;BME280;39159;45.634;9.420;2022-10-17T07:36:06;100240.66;;;16.66;100.00
53270;BME280;39159;45.634;9.420;2022-10-17T07:38:33;100237.81;;;16.80;100.00
53270;BME280;39159;45.634;9.420;2022-10-17T07:41:03;100246.13;;;16.88;100.00
53270;BME280;39159;45.634;9.420;2022-10-17T07:43:29;100230.41;;;16.97;100.00
53270;BME280;39159;45.634;9.420;2022-10-17T07:45:54;100229.47;;;17.11;100.00
53270;BME280;39159;45.634;9.420;2022-10-17T07:48:21;100229.50;;;17.19;100.00
53270;BME280;39159;45.634;9.420;2022-10-17T07:50:47;100233.59;;;17.31;100.00
53270;BME280;39159;45.634;9.420;2022-10-17T07:53:13;100231.31;;;17.33;100.00
53270;BME280;39159;45.634;9.420;2022-10-17T07:55:39;100236.06;;;17.50;100.00
53270;BME280;39159;45.634;9.420;2022-10-17T07:58:07;100243.72;;;17.70;100.00
53270;BME280;39159;45.634;9.420;2022-10-17T08:00:33;100242.28;;;17.81;100.00
53270;BME280;39159;45.634;9.420;2022-10-17T08:02:59;100241.94;;;18.00;100.00
53270;BME280;39159;45.634;9.420;2022-10-17T08:05:24;100234.91;;;18.29;100.00
53270;BME280;39159;45.634;9.420;2022-10-17T08:07:50;100245.91;;;18.55;100.00
53270;BME280;39159;45.634;9.420;2022-10-17T08:10:16;100241.94;;;18.74;100.00
53270;BME280;39159;45.634;9.420;2022-10-17T08:12:41;100236.41;;;18.82;100.00
53270;BME280;39159;45.634;9.420;2022-10-17T08:15:08;100243.13;;;19.02;100.00
53270;BME280;39159;45.634;9.420;2022-10-17T08:17:35;100248.78;;;19.15;99.03
53270;BME280;39159;45.634;9.420;2022-10-17T08:20:01;100249.16;;;19.04;97.42
53270;BME280;39159;45.634;9.420;2022-10-17T08:22:26;100251.50;;;19.23;96.92
53270;BME280;39159;45.634;9.420;2022-10-17T08:24:52;100252.06;;;19.38;96.32
53270;BME280;39159;45.634;9.420;2022-10-17T08:27:17;100261.16;;;19.38;95.06
53270;BME280;39159;45.634;9.420;2022-10-17T08:29:48;100252.91;;;19.59;95.62
53270;BME280;39159;45.634;9.420;2022-10-17T08:32:18;100256.75;;;19.46;93.60
53270;BME280;39159;45.634;9.420;2022-10-17T08:34:44;100264.88;;;19.21;93.50
53270;BME280;39159;45.634;9.420;2022-10-17T08:37:09;100253.59;;;19.26;94.11
53270;BME280;39159;45.634;9.420;2022-10-17T08:39:37;100259.75;;;19.32;92.72
53270;BME280;39159;45.634;9.420;2022-10-17T08:45:00;100267.75;;;19.55;92.41
53270;BME280;39159;45.634;9.420;2022-10-17T08:47:40;100269.00;;;19.87;93.08
53270;BME280;39159;45.634;9.420;2022-10-17T08:50:13;100265.59;;;20.23;90.11
53270;BME280;39159;45.634;9.420;2022-10-17T08:55:19;100272.34;;;20.68;84.73
53270;BME280;39159;45.634;9.420;2022-10-17T08:57:47;100261.50;;;20.75;83.58
53270;BME280;39159;45.634;9.420;2022-10-17T09:00:20;100257.44;;;20.85;81.68
53270;BME280;39159;45.634;9.420;2022-10-17T09:19:29;100262.56;;;21.57;77.21
53270;BME280;39159;45.634;9.420;2022-10-17T09:22:09;100265.44;;;21.60;78.98
53270;BME280;39159;45.634;9.420;2022-10-17T09:24:41;100261.19;;;21.91;78.00
53270;BME280;39159;45.634;9.420;2022-10-17T09:27:21;100265.44;;;22.01;76.93
53270;BME280;39159;45.634;9.420;2022-10-17T09:29:49;100258.81;;;21.65;76.26
53270;BME280;39159;45.634;9.420;2022-10-17T09:32:22;100262.53;;;21.69;78.24
53270;BME280;39159;45.634;9.420;2022-10-17T09:34:48;100267.41;;;22.00;78.17
53270;BME280;39159;45.634;9.420;2022-10-17T09:37:15;100267.44;;;22.28;76.25
53270;BME280;39159;45.634;9.420;2022-10-17T09:39:42;100256.81;;;22.46;74.70
53270;BME280;39159;45.634;9.420;2022-10-17T09:42:15;100261.75;;;22.69;74.05
53270;BME280;39159;45.634;9.420;2022-10-17T09:45:13;100268.13;;;22.69;72.80
53270;BME280;39159;45.634;9.420;2022-10-17T09:47:46;100265.44;;;22.89;72.87
53270;BME280;39159;45.634;9.420;2022-10-17T09:50:20;100265.47;;;23.05;71.90
53270;BME280;39159;45.634;9.420;2022-10-17T09:52:48;100266.88;;;22.98;71.79
53270;BME280;39159;45.634;9.420;2022-10-17T09:55:24;100264.38;;;22.93;71.49
53270;BME280;39159;45.634;9.420;2022-10-17T10:00:22;100257.28;;;22.96;71.10
53270;BME280;39159;45.634;9.420;2022-10-17T10:02:48;100265.19;;;23.10;70.31
53270;BME280;39159;45.634;9.420;2022-10-17T10:05:16;100269.31;;;23.16;71.26
53270;BME280;39159;45.634;9.420;2022-10-17T10:07:43;100259.25;;;23.27;72.62
53270;BME280;39159;45.634;9.420;2022-10-17T10:10:24;100260.41;;;23.42;71.22
53270;BME280;39159;45.634;9.420;2022-10-17T10:15:38;100262.69;;;23.56;69.50
53270;BME280;39159;45.634;9.420;2022-10-17T10:21:11;100264.47;;;23.64;68.53
53270;BME280;39159;45.634;9.420;2022-10-17T10:26:25;100257.28;;;23.63;67.82
53270;BME280;39159;45.634;9.420;2022-10-17T10:29:03;100255.91;;;23.73;68.77
53270;BME280;39159;45.634;9.420;2022-10-17T10:31:32;100258.38;;;23.58;67.98
53270;BME280;39159;45.634;9.420;2022-10-17T10:34:02;100253.44;;;23.52;69.57
53270;BME280;39159;45.634;9.420;2022-10-17T10:36:46;100261.31;;;23.82;68.53
53270;BME280;39159;45.634;9.420;2022-10-17T10:39:57;100260.19;;;23.86;68.14
53270;BME280;39159;45.634;9.420;2022-10-17T10:42:58;100267.78;;;23.86;68.61
53270;BME280;39159;45.634;9.420;2022-10-17T10:47:59;100261.97;;;23.75;69.62
53270;BME280;39159;45.634;9.420;2022-10-17T10:50:32;100264.81;;;23.78;70.63
53270;BME280;39159;45.634;9.420;2022-10-17T10:55:59;100263.13;;;23.93;70.04
53270;BME280;39159;45.634;9.420;2022-10-17T10:58:33;100268.78;;;23.77;69.15
53270;BME280;39159;45.634;9.420;2022-10-17T11:01:06;100259.59;;;23.96;69.91
53270;BME280;39159;45.634;9.420;2022-10-17T11:03:46;100256.91;;;24.19;69.72
53270;BME280;39159;45.634;9.420;2022-10-17T11:06:20;100256.56;;;24.44;69.29
53270;BME280;39159;45.634;9.420;2022-10-17T11:11:44;100250.09;;;23.97;68.04
53270;BME280;39159;45.634;9.420;2022-10-17T11:14:20;100248.75;;;24.11;70.16
53270;BME280;39159;45.634;9.420;2022-10-17T11:17:01;100245.75;;;24.19;68.44
53270;BME280;39159;45.634;9.420;2022-10-17T11:19:37;100245.59;;;23.93;68.53
53270;BME280;39159;45.634;9.420;2022-10-17T11:22:10;100246.69;;;24.08;67.97
53270;BME280;39159;45.634;9.420;2022-10-17T11:27:07;100247.47;;;24.28;67.21
53270;BME280;39159;45.634;9.420;2022-10-17T11:29:36;100246.97;;;24.22;69.63
53270;BME280;39159;45.634;9.420;2022-10-17T11:32:18;100245.13;;;24.30;67.89
53270;BME280;39159;45.634;9.420;2022-10-17T11:34:47;100242.25;;;24.46;65.60
53270;BME280;39159;45.634;9.420;2022-10-17T11:37:19;100245.13;;;24.30;66.00
53270;BME280;39159;45.634;9.420;2022-10-17T11:39:50;100245.34;;;24.40;67.31
53270;BME280;39159;45.634;9.420;2022-10-17T11:42:26;100250.16;;;24.63;66.27
53270;BME280;39159;45.634;9.420;2022-10-17T11:44:57;100237.94;;;24.29;66.20
53270;BME280;39159;45.634;9.420;2022-10-17T11:47:52;100241.72;;;24.17;66.55
53270;BME280;39159;45.634;9.420;2022-10-17T11:50:24;100231.34;;;24.17;68.72
53270;BME280;39159;45.634;9.420;2022-10-17T11:53:02;100230.69;;;24.47;67.46
53270;BME280;39159;45.634;9.420;2022-10-17T11:55:30;100225.53;;;24.69;63.76
53270;BME280;39159;45.634;9.420;2022-10-17T11:58:31;100227.03;;;24.43;65.49
53270;BME280;39159;45.634;9.420;2022-10-17T12:01:17;100221.41;;;24.39;64.99
53270;BME280;39159;45.634;9.420;2022-10-17T12:09:54;100212.41;;;24.27;66.72
53270;BME280;39159;45.634;9.420;2022-10-17T12:12:28;100212.72;;;24.45;65.97
53270;BME280;39159;45.634;9.420;2022-10-17T12:17:58;100217.84;;;24.62;65.87
53270;BME280;39159;45.634;9.420;2022-10-17T12:20:29;100207.94;;;24.45;65.08
53270;BME280;39159;45.634;9.420;2022-10-17T12:25:36;100196.97;;;24.52;66.91
53270;BME280;39159;45.634;9.420;2022-10-17T12:31:09;100206.47;;;24.97;63.38
53270;BME280;39159;45.634;9.420;2022-10-17T12:38:42;100199.38;;;24.77;63.24
53270;BME280;39159;45.634;9.420;2022-10-17T12:41:08;100194.31;;;24.86;61.96
53270;BME280;39159;45.634;9.420;2022-10-17T12:43:51;100184.69;;;24.37;62.61
53270;BME280;39159;45.634;9.420;2022-10-17T12:46:49;100180.34;;;24.59;62.76
53270;BME280;39159;45.634;9.420;2022-10-17T12:49:46;100192.69;;;24.85;62.66
53270;BME280;39159;45.634;9.420;2022-10-17T12:55:10;100180.63;;;24.54;62.43
53270;BME280;39159;45.634;9.420;2022-10-17T13:02:36;100181.31;;;24.71;62.33
53270;BME280;39159;45.634;9.420;2022-10-17T13:05:06;100173.31;;;24.96;60.36
53270;BME280;39159;45.634;9.420;2022-10-17T13:07:34;100166.16;;;24.98;61.13
53270;BME280;39159;45.634;9.420;2022-10-17T13:10:00;100167.78;;;24.50;62.31
53270;BME280;39159;45.634;9.420;2022-10-17T13:12:31;100168.97;;;24.49;61.69
53270;BME280;39159;45.634;9.420;2022-10-17T13:14:58;100166.47;;;24.44;61.26
53270;BME280;39159;45.634;9.420;2022-10-17T13:17:27;100160.50;;;24.45;60.86
53270;BME280;39159;45.634;9.420;2022-10-17T13:19:55;100160.19;;;24.27;62.44
53270;BME280;39159;45.634;9.420;2022-10-17T13:22:23;100155.69;;;24.42;62.59
53270;BME280;39159;45.634;9.420;2022-10-17T13:24:51;100164.38;;;24.37;62.31
53270;BME280;39159;45.634;9.420;2022-10-17T13:27:32;100157.44;;;24.50;62.68
53270;BME280;39159;45.634;9.420;2022-10-17T13:30:00;100160.28;;;24.54;60.82
53270;BME280;39159;45.634;9.420;2022-10-17T13:32:34;100155.56;;;24.58;59.10
53270;BME280;39159;45.634;9.420;2022-10-17T13:35:27;100148.91;;;24.43;60.40
53270;BME280;39159;45.634;9.420;2022-10-17T13:37:54;100146.72;;;24.52;60.55
53270;BME280;39159;45.634;9.420;2022-10-17T13:40:23;100147.81;;;24.48;59.94
53270;BME280;39159;45.634;9.420;2022-10-17T13:42:50;100144.00;;;24.36;60.07
53270;BME280;39159;45.634;9.420;2022-10-17T13:45:33;100149.66;;;24.40;61.50
53270;BME280;39159;45.634;9.420;2022-10-17T13:48:06;100156.78;;;24.37;61.17
53270;BME280;39159;45.634;9.420;2022-10-17T13:50:41;100147.16;;;24.12;60.43
53270;BME280;39159;45.634;9.420;2022-10-17T13:55:38;100146.84;;;23.94;60.24
53270;BME280;39159;45.634;9.420;2022-10-17T13:58:15;100150.25;;;23.84;61.55
53270;BME280;39159;45.634;9.420;2022-10-17T14:00:42;100144.16;;;23.78;61.29
53270;BME280;39159;45.634;9.420;2022-10-17T14:03:08;100150.47;;;23.75;61.50
53270;BME280;39159;45.634;9.420;2022-10-17T14:05:33;100148.19;;;23.61;61.22
53270;BME280;39159;45.634;9.420;2022-10-17T14:08:03;100144.19;;;23.62;60.55
53270;BME280;39159;45.634;9.420;2022-10-17T14:10:33;100144.34;;;23.69;60.33
53270;BME280;39159;45.634;9.420;2022-10-17T14:12:59;100143.22;;;23.74;59.97
53270;BME280;39159;45.634;9.420;2022-10-17T14:15:28;100135.53;;;23.67;60.53
53270;BME280;39159;45.634;9.420;2022-10-17T14:18:00;100133.19;;;23.69;61.33
53270;BME280;39159;45.634;9.420;2022-10-17T14:20:27;100134.59;;;23.59;61.31
53270;BME280;39159;45.634;9.420;2022-10-17T14:22:54;100140.84;;;23.53;61.64
53270;BME280;39159;45.634;9.420;2022-10-17T14:28:00;100133.03;;;23.43;62.29
53270;BME280;39159;45.634;9.420;2022-10-17T14:30:36;100134.22;;;23.42;62.85
53270;BME280;39159;45.634;9.420;2022-10-17T14:33:05;100125.66;;;23.31;63.77